Time,TemperatureF,DewpointF,PressureIn,WindDirection,WindDirectionDegrees,WindSpeedMPH,WindSpeedGustMPH,Humidity,HourlyPrecipIn,Conditions,Clouds,dailyrainin,SoftwareType,DateUTC
2013-01-18 07:45:00,3.1,-18.4,30.23,ESE,119,1.0,1.0,35,0.00,,,0.00,Wunderground v.1.15,2013-01-18 12:45:00,
2013-01-18 07:55:00,4.0,-17.1,30.23,SSE,165,1.0,2.0,36,0.00,,,0.00,Wunderground v.1.15,2013-01-18 12:55:00,
2013-01-18 08:00:00,4.0,-17.6,30.24,ESE,119,2.0,5.0,35,0.00,,,0.00,Wunderground v.1.15,2013-01-18 13:00:00,
2013-01-18 08:05:00,4.1,-18.1,30.24,SE,146,2.0,5.0,34,0.00,,,0.00,Wunderground v.1.15,2013-01-18 13:05:00,
2013-01-18 08:15:00,4.8,-16.4,30.25,ESE,121,1.0,2.0,36,0.00,,,0.00,Wunderground v.1.15,2013-01-18 13:15:00,
2013-01-18 08:20:00,4.8,-18.7,30.25,SE,131,1.0,9.0,32,0.00,,,0.00,Wunderground v.1.15,2013-01-18 13:20:00,
2013-01-18 08:30:00,4.9,-18.0,30.25,NE,47,3.0,5.0,33,0.00,,,0.00,Wunderground v.1.15,2013-01-18 13:30:00,
2013-01-18 08:35:00,5.0,-17.3,30.26,WNW,288,2.0,5.0,34,0.00,,,0.00,Wunderground v.1.15,2013-01-18 13:35:00,
2013-01-18 08:40:00,5.2,-18.3,30.26,SE,130,1.0,1.0,32,0.00,,,0.00,Wunderground v.1.15,2013-01-18 13:40:00,
2013-01-18 08:50:00,5.5,-18.0,30.26,SE,131,1.0,2.0,32,0.00,,,0.00,Wunderground v.1.15,2013-01-18 13:50:00,
2013-01-18 08:55:00,5.5,-18.7,30.27,North,5,2.0,2.0,31,0.00,,,0.00,Wunderground v.1.15,2013-01-18 13:55:00,
2013-01-18 09:05:00,5.9,-17.7,30.27,SSW,201,2.0,2.0,32,0.00,,,0.00,Wunderground v.1.15,2013-01-18 14:05:00,
2013-01-18 09:10:00,6.1,-16.9,30.27,SE,127,1.0,4.0,33,0.00,,,0.00,Wunderground v.1.15,2013-01-18 14:10:00,
2013-01-18 09:20:00,6.6,-16.5,30.27,SE,134,1.0,1.0,33,0.00,,,0.00,Wunderground v.1.15,2013-01-18 14:20:00,
2013-01-18 09:25:00,6.3,-18.0,30.27,NW,324,3.0,4.0,31,0.00,,,0.00,Wunderground v.1.15,2013-01-18 14:25:00,
2013-01-18 09:35:00,6.5,-16.6,30.27,SSE,167,3.0,6.0,33,0.00,,,0.00,Wunderground v.1.15,2013-01-18 14:35:00,
2013-01-18 09:40:00,6.6,-17.7,30.27,NW,316,3.0,3.0,31,0.00,,,0.00,Wunderground v.1.15,2013-01-18 14:40:00,
2013-01-18 09:50:00,6.4,-17.9,30.28,West,281,4.0,4.0,31,0.00,,,0.00,Wunderground v.1.15,2013-01-18 14:50:00,
2013-01-18 09:55:00,6.8,-16.3,30.27,WNW,293,5.0,5.0,33,0.00,,,0.00,Wunderground v.1.15,2013-01-18 14:55:00,
2013-01-18 10:00:00,7.0,-16.1,30.27,NW,316,3.0,3.0,33,0.00,,,0.00,Wunderground v.1.15,2013-01-18 15:00:00,
2013-01-18 10:10:00,8.1,-15.7,30.27,West,267,1.0,2.0,32,0.00,,,0.00,Wunderground v.1.15,2013-01-18 15:10:00,
2013-01-18 10:15:00,8.3,-15.6,30.27,WNW,295,2.0,2.0,32,0.00,,,0.00,Wunderground v.1.15,2013-01-18 15:15:00,
2013-01-18 10:25:00,8.4,-14.9,30.28,NW,324,3.0,8.0,33,0.00,,,0.00,Wunderground v.1.15,2013-01-18 15:25:00,
2013-01-18 10:30:00,8.6,-14.1,30.27,SSE,158,2.0,3.0,34,0.00,,,0.00,Wunderground v.1.15,2013-01-18 15:30:00,
2013-01-18 10:40:00,9.2,-12.4,30.27,SSE,152,2.0,3.0,36,0.00,,,0.00,Wunderground v.1.15,2013-01-18 15:40:00,
2013-01-18 10:45:00,9.4,-11.7,30.27,NNW,338,2.0,3.0,37,0.00,,,0.00,Wunderground v.1.15,2013-01-18 15:45:00,
2013-01-18 10:55:00,9.5,-11.6,30.27,SSE,160,3.0,6.0,37,0.00,,,0.00,Wunderground v.1.15,2013-01-18 15:55:00,
2013-01-18 11:00:00,9.9,-11.2,30.27,WSW,253,3.0,3.0,37,0.00,,,0.00,Wunderground v.1.15,2013-01-18 16:00:00,
2013-01-18 11:10:00,9.4,-11.7,30.27,NNE,26,4.0,7.0,37,0.00,,,0.00,Wunderground v.1.15,2013-01-18 16:10:00,
2013-01-18 11:15:00,9.3,-12.9,30.27,NW,318,5.0,7.0,35,0.00,,,0.00,Wunderground v.1.15,2013-01-18 16:15:00,
2013-01-18 11:20:00,9.1,-12.5,30.27,SW,231,6.0,6.0,36,0.00,,,0.00,Wunderground v.1.15,2013-01-18 16:20:00,
2013-01-18 11:30:00,10.0,-11.1,30.26,SSW,192,3.0,3.0,37,0.00,,,0.00,Wunderground v.1.15,2013-01-18 16:30:00,
2013-01-18 11:35:00,10.0,-11.1,30.26,SE,145,3.0,3.0,37,0.00,,,0.00,Wunderground v.1.15,2013-01-18 16:35:00,
2013-01-18 11:45:00,10.0,-11.1,30.26,NE,54,4.0,12.0,37,0.00,,,0.00,Wunderground v.1.15,2013-01-18 16:45:00,
2013-01-18 11:50:00,10.1,-11.0,30.26,ENE,65,4.0,4.0,37,0.00,,,0.00,Wunderground v.1.15,2013-01-18 16:50:00,
2013-01-18 12:00:00,11.3,-10.0,30.26,SSE,158,2.0,2.0,37,0.00,,,0.00,Wunderground v.1.15,2013-01-18 17:00:00,
2013-01-18 12:05:00,11.3,-10.0,30.25,SSE,149,2.0,6.0,37,0.00,,,0.00,Wunderground v.1.15,2013-01-18 17:05:00,
2013-01-18 12:15:00,11.7,-10.2,30.25,SW,227,3.0,4.0,36,0.00,,,0.00,Wunderground v.1.15,2013-01-18 17:15:00,
2013-01-18 12:20:00,11.7,-10.2,30.26,South,176,3.0,3.0,36,0.00,,,0.00,Wunderground v.1.15,2013-01-18 17:20:00,
2013-01-18 12:30:00,11.8,-9.5,30.25,NNE,14,3.0,3.0,37,0.00,,,0.00,Wunderground v.1.15,2013-01-18 17:30:00,
2013-01-18 12:35:00,11.8,-10.1,30.25,SSE,166,3.0,3.0,36,0.00,,,0.00,Wunderground v.1.15,2013-01-18 17:35:00,
2013-01-18 12:45:00,11.5,-10.3,30.25,SW,217,4.0,5.0,36,0.00,,,0.00,Wunderground v.1.15,2013-01-18 17:45:00,
2013-01-18 12:50:00,11.8,-10.1,30.25,NNW,328,3.0,3.0,36,0.00,,,0.00,Wunderground v.1.15,2013-01-18 17:50:00,
2013-01-18 13:00:00,12.8,-9.2,30.25,WNW,295,2.0,2.0,36,0.00,,,0.00,Wunderground v.1.15,2013-01-18 18:00:00,
2013-01-18 13:05:00,12.7,-9.8,30.25,WNW,293,2.0,2.0,35,0.00,,,0.00,Wunderground v.1.15,2013-01-18 18:05:00,
2013-01-18 13:10:00,12.6,-9.9,30.24,NNW,347,3.0,3.0,35,0.00,,,0.00,Wunderground v.1.15,2013-01-18 18:10:00,
2013-01-18 13:20:00,13.3,-9.3,30.25,NNE,18,2.0,2.0,35,0.00,,,0.00,Wunderground v.1.15,2013-01-18 18:20:00,
2013-01-18 13:25:00,13.1,-10.7,30.25,SE,141,4.0,4.0,33,0.00,,,0.00,Wunderground v.1.15,2013-01-18 18:25:00,
2013-01-18 13:35:00,12.8,-9.8,30.25,NW,317,5.0,6.0,35,0.00,,,0.00,Wunderground v.1.15,2013-01-18 18:35:00,
2013-01-18 13:40:00,12.9,-8.5,30.25,South,173,4.0,4.0,37,0.00,,,0.00,Wunderground v.1.15,2013-01-18 18:40:00,
2013-01-18 13:50:00,13.9,-8.2,30.25,North,10,3.0,4.0,36,0.00,,,0.00,Wunderground v.1.15,2013-01-18 18:50:00,
2013-01-18 13:55:00,14.0,-8.7,30.26,SSE,167,3.0,4.0,35,0.00,,,0.00,Wunderground v.1.15,2013-01-18 18:55:00,
2013-01-18 14:05:00,14.3,-7.8,30.26,ESE,114,4.0,8.0,36,0.00,,,0.00,Wunderground v.1.15,2013-01-18 19:05:00,
2013-01-18 14:10:00,14.4,-8.3,30.26,WSW,255,4.0,4.0,35,0.00,,,0.00,Wunderground v.1.15,2013-01-18 19:10:00,
2013-01-18 14:20:00,14.3,-7.8,30.27,SSE,166,4.0,4.0,36,0.00,,,0.00,Wunderground v.1.15,2013-01-18 19:20:00,
2013-01-18 14:25:00,14.7,-7.5,30.26,SE,136,3.0,4.0,36,0.00,,,0.00,Wunderground v.1.15,2013-01-18 19:25:00,
2013-01-18 14:30:00,14.8,-8.0,30.26,South,169,3.0,3.0,35,0.00,,,0.00,Wunderground v.1.15,2013-01-18 19:30:00,
2013-01-18 14:40:00,14.7,-7.5,30.27,ESE,108,4.0,9.0,36,0.00,,,0.00,Wunderground v.1.15,2013-01-18 19:40:00,
2013-01-18 14:45:00,14.6,-7.0,30.27,NNW,327,4.0,9.0,37,0.00,,,0.00,Wunderground v.1.15,2013-01-18 19:45:00,
2013-01-18 14:55:00,14.5,-6.5,30.27,SE,138,4.0,10.0,38,0.00,,,0.00,Wunderground v.1.15,2013-01-18 19:55:00,
2013-01-18 15:05:00,14.6,-6.4,30.28,NE,38,4.0,5.0,38,0.00,,,0.00,Wunderground v.1.15,2013-01-18 20:05:00,
2013-01-18 15:10:00,14.9,-6.7,30.28,WNW,300,3.0,3.0,37,0.00,,,0.00,Wunderground v.1.15,2013-01-18 20:10:00,
2013-01-18 15:20:00,14.7,-6.9,30.29,SSW,207,3.0,3.0,37,0.00,,,0.00,Wunderground v.1.15,2013-01-18 20:20:00,
2013-01-18 15:25:00,14.7,-6.9,30.29,West,262,2.0,3.0,37,0.00,,,0.00,Wunderground v.1.15,2013-01-18 20:25:00,
2013-01-18 15:30:00,14.4,-6.6,30.29,SW,219,1.0,4.0,38,0.00,,,0.00,Wunderground v.1.15,2013-01-18 20:30:00,
2013-01-18 15:40:00,14.2,-6.8,30.29,SSW,204,3.0,3.0,38,0.00,,,0.00,Wunderground v.1.15,2013-01-18 20:40:00,
2013-01-18 15:45:00,14.1,-7.4,30.29,WSW,252,3.0,3.0,37,0.00,,,0.00,Wunderground v.1.15,2013-01-18 20:45:00,
2013-01-18 15:55:00,13.9,-7.1,30.29,South,191,2.0,5.0,38,0.00,,,0.00,Wunderground v.1.15,2013-01-18 20:55:00,
2013-01-18 16:00:00,13.7,-7.8,30.29,North,9,2.0,4.0,37,0.00,,,0.00,Wunderground v.1.15,2013-01-18 21:00:00,
2013-01-18 16:10:00,13.4,-7.0,30.29,WNW,285,2.0,2.0,39,0.00,,,0.00,Wunderground v.1.15,2013-01-18 21:10:00,
2013-01-18 16:15:00,13.2,-7.2,30.29,SE,136,1.0,2.0,39,0.00,,,0.00,Wunderground v.1.15,2013-01-18 21:15:00,
2013-01-18 16:25:00,13.0,-6.8,30.30,NW,305,2.0,2.0,40,0.00,,,0.00,Wunderground v.1.15,2013-01-18 21:25:00,
2013-01-18 16:30:00,13.0,-7.4,30.30,SW,221,2.0,2.0,39,0.00,,,0.00,Wunderground v.1.15,2013-01-18 21:30:00,
2013-01-18 16:40:00,12.6,-7.2,30.30,ESE,118,1.0,3.0,40,0.00,,,0.00,Wunderground v.1.15,2013-01-18 21:40:00,
2013-01-18 16:45:00,12.5,-7.3,30.30,West,276,1.0,3.0,40,0.00,,,0.00,Wunderground v.1.15,2013-01-18 21:45:00,
2013-01-18 16:55:00,12.1,-7.1,30.30,SW,219,0.0,5.0,41,0.00,,,0.00,Wunderground v.1.15,2013-01-18 21:55:00,
2013-01-18 17:00:00,11.8,-7.4,30.31,NNW,340,0.0,1.0,41,0.00,,,0.00,Wunderground v.1.15,2013-01-18 22:00:00,
2013-01-18 17:05:00,11.4,-7.3,30.31,North,9,0.0,1.0,42,0.00,,,0.00,Wunderground v.1.15,2013-01-18 22:05:00,
2013-01-18 17:15:00,11.0,-7.2,30.31,NW,309,0.0,1.0,43,0.00,,,0.00,Wunderground v.1.15,2013-01-18 22:15:00,
2013-01-18 17:20:00,10.8,-7.4,30.31,North,357,0.0,0.0,43,0.00,,,0.00,Wunderground v.1.15,2013-01-18 22:20:00,
2013-01-18 17:30:00,10.7,-7.0,30.32,NW,315,0.0,0.0,44,0.00,,,0.00,Wunderground v.1.15,2013-01-18 22:30:00,
2013-01-18 17:35:00,10.3,-6.9,30.31,East,80,0.0,0.0,45,0.00,,,0.00,Wunderground v.1.15,2013-01-18 22:35:00,
2013-01-18 17:45:00,10.4,-7.2,30.32,SW,218,0.0,0.0,44,0.00,,,0.00,Wunderground v.1.15,2013-01-18 22:45:00,
2013-01-18 17:50:00,10.4,-6.8,30.32,SW,218,0.0,0.0,45,0.00,,,0.00,Wunderground v.1.15,2013-01-18 22:50:00,
2013-01-18 18:00:00,9.1,-7.5,30.32,WSW,245,0.0,0.0,46,0.00,,,0.00,Wunderground v.1.15,2013-01-18 23:00:00,
2013-01-18 18:05:00,8.9,-6.8,30.32,NW,322,1.0,1.0,48,0.00,,,0.00,Wunderground v.1.15,2013-01-18 23:05:00,
2013-01-18 18:15:00,8.4,-6.0,30.33,NNW,327,1.0,1.0,51,0.00,,,0.00,Wunderground v.1.15,2013-01-18 23:15:00,
2013-01-18 18:20:00,8.5,-5.5,30.33,NNW,328,0.0,0.0,52,0.00,,,0.00,Wunderground v.1.15,2013-01-18 23:20:00,
2013-01-18 18:25:00,8.1,-5.1,30.33,NNW,327,0.0,0.0,54,0.00,,,0.00,Wunderground v.1.15,2013-01-18 23:25:00,
2013-01-18 18:35:00,7.6,-5.2,30.34,NNW,327,0.0,0.0,55,0.00,,,0.00,Wunderground v.1.15,2013-01-18 23:35:00,
2013-01-18 18:40:00,6.9,-5.1,30.33,NNW,327,0.0,0.0,57,0.00,,,0.00,Wunderground v.1.15,2013-01-18 23:40:00,
2013-01-18 18:50:00,6.1,-4.8,30.34,NNW,327,0.0,0.0,60,0.00,,,0.00,Wunderground v.1.15,2013-01-18 23:50:00,
2013-01-18 18:55:00,5.8,-5.1,30.34,NNW,342,0.0,1.0,60,0.00,,,0.00,Wunderground v.1.15,2013-01-18 23:55:00,
2013-01-18 19:05:00,6.2,-5.4,30.33,NNW,329,1.0,1.0,58,0.00,,,0.00,Wunderground v.1.15,2013-01-19 00:05:00,
2013-01-18 19:10:00,6.5,-5.2,30.34,NNE,20,1.0,1.0,58,0.00,,,0.00,Wunderground v.1.15,2013-01-19 00:10:00,
2013-01-18 19:20:00,5.6,-4.6,30.33,NNE,19,0.0,0.0,62,0.00,,,0.00,Wunderground v.1.15,2013-01-19 00:20:00,
2013-01-18 19:25:00,5.2,-4.7,30.34,North,5,0.0,0.0,63,0.00,,,0.00,Wunderground v.1.15,2013-01-19 00:25:00,
2013-01-18 19:35:00,3.9,-5.6,30.34,SE,136,0.0,0.0,64,0.00,,,0.00,Wunderground v.1.15,2013-01-19 00:35:00,
2013-01-18 19:40:00,3.5,-5.6,30.34,North,4,0.0,0.0,65,0.00,,,0.00,Wunderground v.1.15,2013-01-19 00:40:00,
2013-01-18 19:50:00,3.5,-5.0,30.35,NNW,333,0.0,1.0,67,0.00,,,0.00,Wunderground v.1.15,2013-01-19 00:50:00,
2013-01-18 19:55:00,3.4,-5.1,30.35,NNW,335,0.0,1.0,67,0.00,,,0.00,Wunderground v.1.15,2013-01-19 00:55:00,
2013-01-18 20:05:00,3.2,-5.3,30.35,NW,319,0.0,0.0,67,0.00,,,0.00,Wunderground v.1.15,2013-01-19 01:05:00,
2013-01-18 20:10:00,3.0,-5.5,30.36,NW,319,0.0,0.0,67,0.00,,,0.00,Wunderground v.1.15,2013-01-19 01:10:00,
2013-01-18 20:20:00,2.5,-5.7,30.36,SE,145,0.0,0.0,68,0.00,,,0.00,Wunderground v.1.15,2013-01-19 01:20:00,
2013-01-18 20:25:00,2.4,-5.8,30.35,SE,145,0.0,0.0,68,0.00,,,0.00,Wunderground v.1.15,2013-01-19 01:25:00,
2013-01-18 20:35:00,2.4,-5.5,30.36,SE,145,0.0,0.0,69,0.00,,,0.00,Wunderground v.1.15,2013-01-19 01:35:00,
2013-01-18 20:40:00,2.3,-5.3,30.36,SE,145,0.0,0.0,70,0.00,,,0.00,Wunderground v.1.15,2013-01-19 01:40:00,
2013-01-18 20:50:00,1.9,-5.9,30.36,South,176,0.0,0.0,69,0.00,,,0.00,Wunderground v.1.15,2013-01-19 01:50:00,
2013-01-18 20:55:00,1.5,-5.7,30.36,South,175,0.0,0.0,71,0.00,,,0.00,Wunderground v.1.15,2013-01-19 01:55:00,
2013-01-18 21:05:00,1.3,-5.6,30.36,South,174,0.0,0.0,72,0.00,,,0.00,Wunderground v.1.15,2013-01-19 02:05:00,
2013-01-18 21:10:00,1.3,-5.6,30.36,NNW,342,0.0,0.0,72,0.00,,,0.00,Wunderground v.1.15,2013-01-19 02:10:00,
2013-01-18 21:20:00,1.4,-5.5,30.36,NNW,342,0.0,0.0,72,0.00,,,0.00,Wunderground v.1.15,2013-01-19 02:20:00,
2013-01-18 21:25:00,0.8,-6.1,30.36,NNW,342,0.0,0.0,72,0.00,,,0.00,Wunderground v.1.15,2013-01-19 02:25:00,
2013-01-18 21:35:00,0.8,-5.3,30.35,NNW,335,2.0,3.0,75,0.00,,,0.00,Wunderground v.1.15,2013-01-19 02:35:00,
2013-01-18 21:40:00,1.8,-4.6,30.35,SSE,160,2.0,2.0,74,0.00,,,0.00,Wunderground v.1.15,2013-01-19 02:40:00,
2013-01-18 21:50:00,0.0,-6.0,30.35,SE,146,0.0,0.0,75,0.00,,,0.00,Wunderground v.1.15,2013-01-19 02:50:00,
2013-01-18 22:00:00,0.0,-5.2,30.35,NNE,21,0.0,0.0,78,0.00,,,0.00,Wunderground v.1.15,2013-01-19 03:00:00,
2013-01-18 22:05:00,-0.1,-5.6,30.35,NNE,22,0.0,0.0,77,0.00,,,0.00,Wunderground v.1.15,2013-01-19 03:05:00,
2013-01-18 22:10:00,-0.3,-5.8,30.35,North,349,0.0,1.0,77,0.00,,,0.00,Wunderground v.1.15,2013-01-19 03:10:00,
2013-01-18 22:20:00,-0.5,-5.7,30.35,WSW,250,0.0,0.0,78,0.00,,,0.00,Wunderground v.1.15,2013-01-19 03:20:00,
2013-01-18 22:30:00,-0.3,-5.5,30.34,WSW,253,0.0,0.0,78,0.00,,,0.00,Wunderground v.1.15,2013-01-19 03:30:00,
2013-01-18 22:35:00,-0.6,-6.4,30.34,WSW,252,0.0,0.0,76,0.00,,,0.00,Wunderground v.1.15,2013-01-19 03:35:00,
2013-01-18 22:45:00,-1.1,-6.0,30.34,WSW,252,0.0,0.0,79,0.00,,,0.00,Wunderground v.1.15,2013-01-19 03:45:00,
2013-01-18 22:50:00,-1.1,-6.0,30.34,WSW,255,0.0,0.0,79,0.00,,,0.00,Wunderground v.1.15,2013-01-19 03:50:00,
2013-01-18 22:55:00,-1.1,-5.8,30.33,WSW,254,0.0,0.0,80,0.00,,,0.00,Wunderground v.1.15,2013-01-19 03:55:00,